createdAt,value
2023-03-21T00:02:50.989Z,8.11
2023-03-21T00:05:54.086Z,8.10
2023-03-21T00:08:56.762Z,8.10
2023-03-21T00:12:01.570Z,8.09
2023-03-21T00:15:05.858Z,8.07
2023-03-21T00:18:11.477Z,8.10
2023-03-21T00:21:44.015Z,8.11
2023-03-21T00:24:39.226Z,8.09
2023-03-21T00:27:57.206Z,8.09
2023-03-21T00:31:04.095Z,8.08
2023-03-21T00:34:08.033Z,8.05
2023-03-21T00:37:11.919Z,8.05
2023-03-21T00:40:27.623Z,8.06
2023-03-21T00:43:33.668Z,7.97
2023-03-21T00:46:45.482Z,8.09
2023-03-21T00:49:53.188Z,8.04
2023-03-21T00:52:55.706Z,8.05
2023-03-21T00:55:58.631Z,8.04
2023-03-21T00:59:01.174Z,8.03
2023-03-21T01:02:07.273Z,8.05
2023-03-21T01:05:12.290Z,8.05
2023-03-21T01:08:25.422Z,8.06
2023-03-21T01:11:30.753Z,8.09
2023-03-21T01:14:33.320Z,8.09
2023-03-21T01:17:36.049Z,8.11
2023-03-21T01:20:41.328Z,8.13
2023-03-21T01:23:44.028Z,8.15
2023-03-21T01:26:46.611Z,8.16
2023-03-21T01:29:49.207Z,8.18
2023-03-21T01:32:51.856Z,8.18
2023-03-21T01:36:09.927Z,8.20
2023-03-21T01:39:15.250Z,8.19
2023-03-21T01:42:17.825Z,8.18
2023-03-21T01:45:57.698Z,8.21
2023-03-21T01:49:01.506Z,8.21
2023-03-21T01:52:13.145Z,8.19
2023-03-21T01:55:19.769Z,8.17
2023-03-21T01:58:23.001Z,8.18
2023-03-21T02:01:25.697Z,8.19
2023-03-21T02:04:30.211Z,8.18
2023-03-21T02:07:35.716Z,8.14
2023-03-21T02:10:38.319Z,8.14
2023-03-21T02:13:41.612Z,8.11
2023-03-21T02:16:49.208Z,8.11
2023-03-21T02:20:22.837Z,8.07
2023-03-21T02:23:53.541Z,8.00
2023-03-21T02:27:03.882Z,7.99
2023-03-21T02:30:50.972Z,7.97
2023-03-21T02:34:04.175Z,7.96
2023-03-21T02:37:12.279Z,7.94
2023-03-21T02:40:16.163Z,7.93
2023-03-21T02:43:23.633Z,7.92
2023-03-21T02:46:39.899Z,7.92
2023-03-21T02:49:46.170Z,7.93
2023-03-21T02:52:50.093Z,7.92
2023-03-21T02:55:52.869Z,7.93
2023-03-21T02:58:55.524Z,7.92
2023-03-21T03:01:58.274Z,7.94
2023-03-21T03:05:02.893Z,7.95
2023-03-21T03:08:20.508Z,7.97
2023-03-21T03:11:25.340Z,7.95
2023-03-21T03:15:00.305Z,7.99
2023-03-21T03:18:11.448Z,7.98
2023-03-21T03:21:17.836Z,7.99
2023-03-21T03:24:23.520Z,8.03
2023-03-21T03:27:27.826Z,8.05
2023-03-21T03:30:41.183Z,8.03
2023-03-21T03:33:47.801Z,8.06
2023-03-21T03:36:56.215Z,8.07
2023-03-21T03:40:03.294Z,7.96
2023-03-21T03:43:06.722Z,8.06
2023-03-21T03:46:12.285Z,8.07
2023-03-21T03:49:16.301Z,8.02
2023-03-21T03:52:20.239Z,8.04
2023-03-21T03:55:26.498Z,8.02
2023-03-21T03:58:43.096Z,7.99
2023-03-21T04:01:47.692Z,7.97
2023-03-21T04:04:53.310Z,7.94
2023-03-21T04:07:55.877Z,7.90
2023-03-21T04:10:59.798Z,7.89
2023-03-21T04:14:02.368Z,7.92
2023-03-21T04:17:04.958Z,7.88
2023-03-21T04:20:13.937Z,7.87
2023-03-21T04:23:20.134Z,7.86
2023-03-21T04:26:24.917Z,7.87
2023-03-21T04:29:29.847Z,7.87
2023-03-21T04:32:33.852Z,7.88
2023-03-21T04:35:37.677Z,7.92
2023-03-21T04:38:40.379Z,7.94
2023-03-21T04:41:45.280Z,7.99
2023-03-21T04:44:48.036Z,8.00
2023-03-21T04:47:50.584Z,8.03
2023-03-21T04:50:53.200Z,8.06
2023-03-21T04:53:57.499Z,8.05
2023-03-21T04:57:01.509Z,8.03
2023-03-21T05:00:09.354Z,7.99
2023-03-21T05:03:19.666Z,7.94
2023-03-21T05:06:22.223Z,7.91
2023-03-21T05:09:24.785Z,7.88
2023-03-21T05:12:28.737Z,7.89
2023-03-21T05:15:31.305Z,7.88
2023-03-21T05:18:38.598Z,7.88
2023-03-21T05:21:42.289Z,7.87
2023-03-21T05:24:49.997Z,7.86
2023-03-21T05:27:54.356Z,7.85
2023-03-21T05:30:56.969Z,7.85
2023-03-21T05:33:59.553Z,7.86
2023-03-21T05:37:02.100Z,7.87
2023-03-21T05:40:06.272Z,7.88
2023-03-21T05:43:10.139Z,7.89
2023-03-21T05:46:12.861Z,7.92
2023-03-21T05:49:15.441Z,7.95
2023-03-21T05:52:17.973Z,7.96
2023-03-21T05:55:20.511Z,7.98
2023-03-21T05:58:24.443Z,8.02
2023-03-21T06:01:27.094Z,8.03
2023-03-21T06:04:29.681Z,8.05
2023-03-21T06:07:32.276Z,8.05
2023-03-21T06:10:34.866Z,8.05
2023-03-21T06:13:38.765Z,8.05
2023-03-21T06:16:41.518Z,8.07
2023-03-21T06:19:44.123Z,8.07
2023-03-21T06:22:46.715Z,8.09
2023-03-21T06:25:49.419Z,8.06
2023-03-21T06:28:53.489Z,8.04
2023-03-21T06:31:56.061Z,8.01
2023-03-21T06:34:58.794Z,7.98
2023-03-21T06:38:01.476Z,7.96
2023-03-21T06:41:04.849Z,7.96
2023-03-21T06:44:08.793Z,7.95
2023-03-21T06:47:11.391Z,7.91
2023-03-21T06:50:13.980Z,7.86
2023-03-21T06:53:16.548Z,7.85
2023-03-21T06:56:19.806Z,7.82
2023-03-21T06:59:23.882Z,7.79
2023-03-21T07:02:26.487Z,7.79
2023-03-21T07:05:29.025Z,7.80
2023-03-21T07:08:31.564Z,7.81
2023-03-21T07:11:34.154Z,7.83
2023-03-21T07:14:38.069Z,7.85
2023-03-21T07:17:40.659Z,7.86
2023-03-21T07:20:43.188Z,7.87
2023-03-21T07:23:47.007Z,7.85
2023-03-21T07:26:49.591Z,7.88
2023-03-21T07:29:53.480Z,7.90
2023-03-21T07:32:56.053Z,7.91
2023-03-21T07:35:58.718Z,7.91
2023-03-21T07:39:01.315Z,7.86
2023-03-21T07:42:03.968Z,7.86
2023-03-21T07:45:09.265Z,7.85
2023-03-21T07:48:12.898Z,7.83
2023-03-21T07:51:15.654Z,7.78
2023-03-21T07:54:20.873Z,7.77
2023-03-21T07:57:23.440Z,7.79
2023-03-21T08:00:27.723Z,7.83
2023-03-21T08:03:31.478Z,7.86
2023-03-21T08:06:34.137Z,7.88
2023-03-21T08:09:37.246Z,7.91
2023-03-21T08:12:40.034Z,7.91
2023-03-21T08:15:44.294Z,7.96
2023-03-21T08:18:47.031Z,7.98
2023-03-21T08:21:50.885Z,8.04
2023-03-21T08:24:53.440Z,8.07
2023-03-21T08:27:55.989Z,8.10
2023-03-21T08:30:59.882Z,8.13
2023-03-21T08:34:02.425Z,8.19
2023-03-21T08:37:05.036Z,8.22
2023-03-21T08:40:11.250Z,8.28
2023-03-21T08:43:14.930Z,8.36
2023-03-21T08:46:18.989Z,8.40
2023-03-21T08:49:21.610Z,8.45
2023-03-21T08:52:24.198Z,8.50
2023-03-21T08:55:26.786Z,8.57
2023-03-21T08:58:29.307Z,8.61
2023-03-21T09:01:33.531Z,8.69
2023-03-21T09:04:36.180Z,8.72
2023-03-21T09:07:39.264Z,8.77
2023-03-21T09:10:41.855Z,8.82
2023-03-21T09:13:44.444Z,8.87
2023-03-21T09:16:48.368Z,8.97
2023-03-21T09:19:51.383Z,9.02
2023-03-21T09:22:54.168Z,9.05
2023-03-21T09:25:56.714Z,9.11
2023-03-21T09:29:00.742Z,9.15
2023-03-21T09:32:06.919Z,9.24
2023-03-21T09:35:11.323Z,9.27
2023-03-21T09:38:14.090Z,9.32
2023-03-21T09:41:22.281Z,9.36
2023-03-21T09:44:31.545Z,9.44
2023-03-21T09:47:39.816Z,9.50
2023-03-21T09:50:42.404Z,9.55
2023-03-21T09:53:45.541Z,9.61
2023-03-21T09:56:48.463Z,9.66
2023-03-21T09:59:53.486Z,9.70
2023-03-21T10:02:59.824Z,9.76
2023-03-21T10:06:07.150Z,9.79
2023-03-21T10:09:14.449Z,9.83
2023-03-21T10:12:30.416Z,9.82
2023-03-21T10:15:32.936Z,9.81
2023-03-21T10:18:36.874Z,9.82
2023-03-21T10:21:59.611Z,9.84
2023-03-21T10:25:03.657Z,9.88
2023-03-21T10:28:07.229Z,9.91
2023-03-21T10:31:10.474Z,9.90
2023-03-21T10:34:17.159Z,9.93
2023-03-21T10:37:19.824Z,9.92
2023-03-21T10:40:22.399Z,9.88
2023-03-21T10:43:35.161Z,9.88
2023-03-21T10:46:37.982Z,9.84
2023-03-21T10:50:06.449Z,9.83
2023-03-21T10:53:04.526Z,9.83
2023-03-21T10:56:09.189Z,9.84
2023-03-21T10:59:17.614Z,9.83
2023-03-21T11:02:22.107Z,9.85
2023-03-21T11:05:27.342Z,9.88
2023-03-21T11:08:30.031Z,9.92
2023-03-21T11:11:35.594Z,9.97
2023-03-21T11:14:39.977Z,10.01
2023-03-21T11:17:42.575Z,10.05
2023-03-21T11:20:51.724Z,10.07
2023-03-21T11:23:54.407Z,10.07
2023-03-21T11:26:57.009Z,10.04
2023-03-21T11:30:00.228Z,10.04
2023-03-21T11:33:03.781Z,10.07
2023-03-21T11:36:09.048Z,10.11
2023-03-21T11:39:16.846Z,10.10
2023-03-21T11:42:27.098Z,10.14
2023-03-21T11:45:30.197Z,10.18
2023-03-21T11:48:33.144Z,10.22
2023-03-21T11:51:39.036Z,10.29
2023-03-21T11:54:52.112Z,10.35
2023-03-21T11:58:13.551Z,10.50
2023-03-21T12:01:19.606Z,10.71
2023-03-21T12:04:26.955Z,10.83
2023-03-21T12:07:34.893Z,10.87
2023-03-21T12:10:41.852Z,10.80
2023-03-21T12:13:59.507Z,10.78
2023-03-21T12:17:11.501Z,10.73
2023-03-21T12:20:19.332Z,10.68
2023-03-21T12:23:30.638Z,10.70
2023-03-21T12:26:33.772Z,10.64
2023-03-21T12:29:50.374Z,10.66
2023-03-21T12:33:04.057Z,10.67
2023-03-21T12:36:17.587Z,10.68
2023-03-21T12:39:29.083Z,10.69
2023-03-21T12:42:48.749Z,10.78
2023-03-21T12:45:52.559Z,10.86
2023-03-21T12:48:57.289Z,10.94
2023-03-21T12:52:01.981Z,10.92
2023-03-21T12:55:07.806Z,10.91
2023-03-21T12:58:12.204Z,10.93
2023-03-21T13:01:15.679Z,10.88
2023-03-21T13:04:37.903Z,10.86
2023-03-21T13:07:41.525Z,10.88
2023-03-21T13:10:46.440Z,10.92
2023-03-21T13:13:51.646Z,10.89
2023-03-21T13:16:55.949Z,10.84
2023-03-21T13:20:01.777Z,10.81
2023-03-21T13:23:06.306Z,10.77
2023-03-21T13:26:13.050Z,10.76
2023-03-21T13:29:22.719Z,10.76
2023-03-21T13:32:28.874Z,10.75
2023-03-21T13:35:35.328Z,10.73
2023-03-21T13:38:40.067Z,10.71
2023-03-21T13:41:47.099Z,10.71
2023-03-21T13:44:50.601Z,10.71
2023-03-21T13:47:54.673Z,10.71
2023-03-21T13:51:01.355Z,10.71
2023-03-21T13:54:04.532Z,10.69
2023-03-21T13:57:23.930Z,10.70
2023-03-21T14:00:30.001Z,10.72
2023-03-21T14:03:35.400Z,10.66
2023-03-21T14:06:42.592Z,10.65
2023-03-21T14:09:46.603Z,10.63
2023-03-21T14:12:50.522Z,10.59
2023-03-21T14:15:56.306Z,10.56
2023-03-21T14:19:01.672Z,10.56
2023-03-21T14:22:05.174Z,10.57
2023-03-21T14:25:08.990Z,10.60
2023-03-21T14:28:16.151Z,10.61
2023-03-21T14:31:19.340Z,10.63
2023-03-21T14:34:21.887Z,10.58
2023-03-21T14:37:29.329Z,10.56
2023-03-21T14:40:31.701Z,10.55
2023-03-21T14:43:35.617Z,10.50
2023-03-21T14:46:38.246Z,10.46
2023-03-21T14:49:40.834Z,10.42
2023-03-21T14:52:44.397Z,10.44
2023-03-21T14:55:47.994Z,10.46
2023-03-21T14:58:51.929Z,10.46
2023-03-21T15:01:54.835Z,10.46
2023-03-21T15:04:59.064Z,10.47
2023-03-21T15:08:02.552Z,10.45
2023-03-21T15:11:07.526Z,10.50
2023-03-21T15:14:13.695Z,10.50
2023-03-21T15:17:16.284Z,10.55
2023-03-21T15:20:18.905Z,10.58
2023-03-21T15:23:26.051Z,10.62
2023-03-21T15:26:28.633Z,10.67
2023-03-21T15:29:34.064Z,10.76
2023-03-21T15:32:37.011Z,10.81
2023-03-21T15:35:41.010Z,10.88
2023-03-21T15:38:45.054Z,10.89
2023-03-21T15:41:58.074Z,10.88
2023-03-21T15:45:03.756Z,10.88
2023-03-21T15:48:08.893Z,10.88
2023-03-21T15:51:15.315Z,10.87
2023-03-21T15:54:21.937Z,10.84
2023-03-21T15:57:25.613Z,10.79
2023-03-21T16:00:34.157Z,10.78
2023-03-21T16:03:37.426Z,10.76
2023-03-21T16:06:40.100Z,10.75
2023-03-21T16:09:43.929Z,10.76
2023-03-21T16:12:46.517Z,10.74
2023-03-21T16:15:50.578Z,10.73
2023-03-21T16:18:53.408Z,10.76
2023-03-21T16:21:55.992Z,10.78
2023-03-21T16:24:58.570Z,10.81
2023-03-21T16:28:01.161Z,10.86
2023-03-21T16:31:05.506Z,10.87
2023-03-21T16:34:08.081Z,10.84
2023-03-21T16:37:11.550Z,10.84
2023-03-21T16:40:21.475Z,10.80
2023-03-21T16:43:24.112Z,10.73
2023-03-21T16:46:28.105Z,10.72
2023-03-21T16:49:30.938Z,10.70
2023-03-21T16:52:33.468Z,10.70
2023-03-21T16:55:36.140Z,10.67
2023-03-21T16:58:38.652Z,10.65
2023-03-21T17:01:45.995Z,10.61
2023-03-21T17:04:48.404Z,10.58
2023-03-21T17:07:50.946Z,10.52
2023-03-21T17:10:53.573Z,10.49
2023-03-21T17:13:56.372Z,10.47
2023-03-21T17:17:00.284Z,10.43
2023-03-21T17:20:04.218Z,10.45
2023-03-21T17:23:07.358Z,10.43
2023-03-21T17:26:10.781Z,10.43
2023-03-21T17:29:13.595Z,10.42
2023-03-21T17:32:17.563Z,10.43
2023-03-21T17:35:20.476Z,10.43
2023-03-21T17:38:23.009Z,10.39
2023-03-21T17:41:25.692Z,10.37
2023-03-21T17:44:28.232Z,10.34
2023-03-21T17:47:32.797Z,10.31
2023-03-21T17:50:37.242Z,10.27
2023-03-21T17:53:40.090Z,10.27
2023-03-21T17:56:42.791Z,10.23
2023-03-21T17:59:45.329Z,10.21
2023-03-21T18:02:49.272Z,10.21
2023-03-21T18:05:52.001Z,10.16
2023-03-21T18:08:54.963Z,10.09
2023-03-21T18:11:57.477Z,10.09
2023-03-21T18:15:00.468Z,10.05
2023-03-21T18:18:04.598Z,10.01
2023-03-21T18:21:10.873Z,9.98
2023-03-21T18:24:13.543Z,9.91
2023-03-21T18:27:17.317Z,9.88
2023-03-21T18:30:37.721Z,9.85
2023-03-21T18:33:46.029Z,9.81
2023-03-21T18:36:49.620Z,9.78
2023-03-21T18:39:53.400Z,9.74
2023-03-21T18:43:47.311Z,9.67
2023-03-21T18:46:18.936Z,9.63
2023-03-21T18:52:45.992Z,9.56
2023-03-21T18:55:51.263Z,9.51
2023-03-21T18:58:55.077Z,9.48
2023-03-21T19:01:57.630Z,9.48
2023-03-21T19:05:02.555Z,9.48
2023-03-21T19:08:05.888Z,9.46
2023-03-21T19:11:09.153Z,9.43
2023-03-21T19:14:12.177Z,9.40
2023-03-21T19:20:39.982Z,9.37
2023-03-21T19:24:19.419Z,9.33
2023-03-21T19:27:05.401Z,9.29
2023-03-21T19:30:14.917Z,9.26
2023-03-21T19:33:18.478Z,9.23
2023-03-21T19:36:23.492Z,9.23
2023-03-21T19:39:27.251Z,9.21
2023-03-21T19:42:30.897Z,9.21
2023-03-21T19:45:33.561Z,9.19
2023-03-21T19:48:37.198Z,9.13
2023-03-21T19:51:42.054Z,9.12
2023-03-21T19:54:44.656Z,9.09
2023-03-21T19:57:49.092Z,9.08
2023-03-21T20:00:51.743Z,9.07
2023-03-21T20:03:54.398Z,9.03
2023-03-21T20:06:59.780Z,8.97
2023-03-21T20:10:02.412Z,8.94
2023-03-21T20:13:04.981Z,8.88
2023-03-21T20:16:10.654Z,8.85
2023-03-21T20:19:15.915Z,8.81
2023-03-21T20:22:31.033Z,8.78
2023-03-21T20:25:42.980Z,8.77
2023-03-21T20:28:56.408Z,8.76
2023-03-21T20:32:02.294Z,8.75
2023-03-21T20:35:18.834Z,8.76
2023-03-21T20:38:24.895Z,8.77
2023-03-21T20:41:27.607Z,8.77
2023-03-21T20:47:53.759Z,8.87
2023-03-21T20:51:01.741Z,8.90
2023-03-21T20:54:06.021Z,8.92
2023-03-21T20:57:09.093Z,8.95
2023-03-21T21:00:14.875Z,8.97
2023-03-21T21:03:17.524Z,8.96
2023-03-21T21:06:21.333Z,8.96
2023-03-21T21:09:25.270Z,8.96
2023-03-21T21:12:28.731Z,8.97
2023-03-21T21:15:33.207Z,8.96
2023-03-21T21:18:36.502Z,8.93
2023-03-21T21:21:39.059Z,8.96
2023-03-21T21:24:42.989Z,8.95
2023-03-21T21:27:46.256Z,8.93
2023-03-21T21:30:49.118Z,8.91
2023-03-21T21:33:54.103Z,8.90
2023-03-21T21:36:56.852Z,8.90
2023-03-21T21:40:00.772Z,8.88
2023-03-21T21:43:04.137Z,8.85
2023-03-21T21:46:07.218Z,8.84
2023-03-21T21:49:09.760Z,8.81
2023-03-21T21:52:13.535Z,8.81
2023-03-21T21:55:17.883Z,8.79
2023-03-21T21:58:21.147Z,8.78
2023-03-21T22:01:23.759Z,8.78
2023-03-21T22:04:27.784Z,8.76
2023-03-21T22:07:32.141Z,8.74
2023-03-21T22:10:36.380Z,8.74
2023-03-21T22:13:38.912Z,8.73
2023-03-21T22:16:42.103Z,8.70
2023-03-21T22:19:52.673Z,8.67
2023-03-21T22:23:01.611Z,8.65
2023-03-21T22:26:06.086Z,8.65
2023-03-21T22:29:10.436Z,8.65
2023-03-21T22:32:13.009Z,8.64
2023-03-21T22:35:15.590Z,8.62
2023-03-21T22:38:23.944Z,8.61
2023-03-21T22:41:27.862Z,8.59
2023-03-21T22:44:34.552Z,8.54
2023-03-21T22:47:37.316Z,8.52
2023-03-21T22:50:40.128Z,8.49
2023-03-21T22:53:42.854Z,8.49
2023-03-21T22:56:46.836Z,8.50
2023-03-21T22:59:49.435Z,8.48
2023-03-21T23:02:51.997Z,8.47
2023-03-21T23:05:56.640Z,8.42
2023-03-21T23:08:59.271Z,8.43
2023-03-21T23:12:03.148Z,8.42
2023-03-21T23:15:06.785Z,8.41
2023-03-21T23:18:09.433Z,8.41
2023-03-21T23:21:13.161Z,8.35
2023-03-21T23:24:15.984Z,8.34
2023-03-21T23:27:19.968Z,8.34
2023-03-21T23:30:22.573Z,8.33
2023-03-21T23:33:25.268Z,8.31
2023-03-21T23:36:27.916Z,8.29
2023-03-21T23:39:33.513Z,8.28
2023-03-21T23:42:37.477Z,8.23
2023-03-21T23:45:40.228Z,8.23
2023-03-21T23:48:42.873Z,8.16
2023-03-21T23:51:45.687Z,8.22
2023-03-21T23:54:48.272Z,8.21
2023-03-21T23:57:58.777Z,8.19
